Time;durP1;ratioP1;P1;durP2;ratioP2;P2;SDS_P1;SDS_P2;PMS_P1;PMS_P2;Temp;Humidity;BMP_temperature;BMP_pressure;BME280_temperature;BME280_humidity;BME280_pressure;Samples;Min_cycle;Max_cycle;Signal;HPM_P1;HPM_P2
2020/02/07 00:00:25;;;;;;;4.3;3.1;;;;;;;-2.96;64.16602;96335.85;;;;
2020/02/07 00:02:27;;;;;;;4.3;3.1;;;;;;;-2.96;64.16602;96335.85;;;;
2020/02/07 00:03:47;;;;;;;4.3;3.1;;;;;;;-2.96;64.16602;96335.85;;;;
2020/02/07 00:04:48;;;;;;;4.3;3.1;;;;;;;-2.96;64.16602;96335.85;;;;
2020/02/07 00:06:22;;;;;;;4.3;3.1;;;;;;;-2.96;64.16602;96335.85;;;;
2020/02/07 00:07:23;;;;;;;4.3;3.1;;;;;;;-2.96;64.16602;96335.85;;;;
2020/02/07 00:08:28;;;;;;;6.099999;3.35;;;;;;;-3.14;64.30566;96336.49;;;;
2020/02/07 00:09:29;;;;;;;6.099999;3.35;;;;;;;-3.14;64.30566;96336.49;;;;
2020/02/07 00:10:40;;;;;;;6.099999;3.35;;;;;;;-3.14;64.30566;96336.49;;;;
2020/02/07 00:11:52;;;;;;;6.099999;3.35;;;;;;;-3.14;64.30566;96336.49;;;;
2020/02/07 00:12:55;;;;;;;6.099999;3.35;;;;;;;-3.14;64.30566;96336.49;;;;
2020/02/07 00:14:09;;;;;;;6.099999;3.35;;;;;;;-3.14;64.30566;96336.49;;;;
2020/02/07 00:15:09;;;;;;;6.099999;3.35;;;;;;;-3.14;64.30566;96336.49;;;;
2020/02/07 00:16:16;;;;;;;6.099999;3.35;;;;;;;-3.14;64.30566;96336.49;;;;
2020/02/07 00:17:26;;;;;;;6.099999;3.35;;;;;;;-3.14;64.30566;96336.49;;;;
2020/02/07 00:18:27;;;;;;;6.099999;3.35;;;;;;;-3.14;64.30566;96336.49;;;;
2020/02/07 00:19:27;;;;;;;4.849999;3.05;;;;;;;-3.33;64.29688;96333.18;;;;
2020/02/07 00:20:28;;;;;;;4.849999;3.05;;;;;;;-3.33;64.29688;96333.18;;;;
2020/02/07 00:21:31;;;;;;;4.849999;3.05;;;;;;;-3.33;64.29688;96333.18;;;;
2020/02/07 00:22:35;;;;;;;5.2;3.5;;;;;;;-3.31;64.81934;96339.7;;;;
2020/02/07 00:23:38;;;;;;;5.2;3.5;;;;;;;-3.31;64.81934;96339.7;;;;
2020/02/07 00:24:38;;;;;;;5.2;3.5;;;;;;;-3.31;64.81934;96339.7;;;;
2020/02/07 00:25:39;;;;;;;5.2;3.5;;;;;;;-3.31;64.81934;96339.7;;;;
2020/02/07 00:30:41;;;;;;;5.2;3.5;;;;;;;-3.31;64.81934;96339.7;;;;
2020/02/07 00:31:44;;;;;;;5.2;3.5;;;;;;;-3.31;64.81934;96339.7;;;;
2020/02/07 00:32:45;;;;;;;4.95;3.25;;;;;;;-3.4;64.81543;96357.61;;;;
2020/02/07 00:33:46;;;;;;;4.95;3.25;;;;;;;-3.4;64.81543;96357.61;;;;
2020/02/07 00:34:46;;;;;;;4.95;3.25;;;;;;;-3.4;64.81543;96357.61;;;;
2020/02/07 00:35:47;;;;;;;6.3;3.75;;;;;;;-3.38;65.21289;96359.61;;;;
2020/02/07 00:36:49;;;;;;;6.3;3.75;;;;;;;-3.38;65.21289;96359.61;;;;
2020/02/07 00:37:51;;;;;;;6.3;3.75;;;;;;;-3.38;65.21289;96359.61;;;;
2020/02/07 00:38:51;;;;;;;6.3;3.75;;;;;;;-3.38;65.21289;96359.61;;;;
2020/02/07 00:39:52;;;;;;;6.3;3.75;;;;;;;-3.38;65.21289;96359.61;;;;
2020/02/07 00:40:54;;;;;;;6.3;3.75;;;;;;;-3.38;65.21289;96359.61;;;;
2020/02/07 00:41:55;;;;;;;6.3;3.75;;;;;;;-3.38;65.21289;96359.61;;;;
2020/02/07 00:42:56;;;;;;;6.3;3.75;;;;;;;-3.38;65.21289;96359.61;;;;
2020/02/07 00:43:56;;;;;;;6.3;3.75;;;;;;;-3.38;65.21289;96359.61;;;;
2020/02/07 00:44:57;;;;;;;6.3;3.75;;;;;;;-3.38;65.21289;96359.61;;;;
2020/02/07 00:45:57;;;;;;;4.599999;3.15;;;;;;;-3.49;65.12402;96355.71;;;;
2020/02/07 00:46:58;;;;;;;4.599999;3.15;;;;;;;-3.49;65.12402;96355.71;;;;
2020/02/07 00:47:58;;;;;;;4.599999;3.15;;;;;;;-3.49;65.12402;96355.71;;;;
2020/02/07 00:48:59;;;;;;;4.599999;3.15;;;;;;;-3.49;65.12402;96355.71;;;;
2020/02/07 00:49:59;;;;;;;4.599999;3.15;;;;;;;-3.49;65.12402;96355.71;;;;
2020/02/07 00:51:00;;;;;;;4.599999;3.15;;;;;;;-3.49;65.12402;96355.71;;;;
2020/02/07 00:52:02;;;;;;;4.599999;3.15;;;;;;;-3.49;65.12402;96355.71;;;;
2020/02/07 00:53:05;;;;;;;4.599999;3.15;;;;;;;-3.49;65.12402;96355.71;;;;
2020/02/07 00:54:05;;;;;;;4.599999;3.15;;;;;;;-3.49;65.12402;96355.71;;;;
2020/02/07 00:55:05;;;;;;;4.599999;3.15;;;;;;;-3.49;65.12402;96355.71;;;;
2020/02/07 00:56:06;;;;;;;4.599999;3.15;;;;;;;-3.49;65.12402;96355.71;;;;
2020/02/07 00:57:06;;;;;;;5.55;3.65;;;;;;;-3.59;65.21191;96358.25;;;;
2020/02/07 00:58:07;;;;;;;5.55;3.65;;;;;;;-3.59;65.21191;96358.25;;;;
2020/02/07 00:59:07;;;;;;;5.55;3.65;;;;;;;-3.59;65.21191;96358.25;;;;
2020/02/07 01:00:08;;;;;;;5.55;3.65;;;;;;;-3.59;65.21191;96358.25;;;;
2020/02/07 01:01:26;;;;;;;5.55;3.65;;;;;;;-3.59;65.21191;96358.25;;;;
2020/02/07 01:02:39;;;;;;;5.55;3.65;;;;;;;-3.59;65.21191;96358.25;;;;
2020/02/07 01:04:15;;;;;;;5.55;3.65;;;;;;;-3.59;65.21191;96358.25;;;;
2020/02/07 01:05:25;;;;;;;5.55;3.65;;;;;;;-3.59;65.21191;96358.25;;;;
2020/02/07 01:06:36;;;;;;;5.55;3.65;;;;;;;-3.59;65.21191;96358.25;;;;
2020/02/07 01:07:36;;;;;;;5.299999;3.5;;;;;;;-3.73;65.25293;96364.28;;;;
2020/02/07 01:08:37;;;;;;;5.299999;3.5;;;;;;;-3.73;65.25293;96364.28;;;;
2020/02/07 01:09:44;;;;;;;5.299999;3.5;;;;;;;-3.73;65.25293;96364.28;;;;
2020/02/07 01:11:15;;;;;;;5.299999;3.5;;;;;;;-3.73;65.25293;96364.28;;;;
2020/02/07 01:12:29;;;;;;;5.299999;3.5;;;;;;;-3.73;65.25293;96364.28;;;;
2020/02/07 01:13:30;;;;;;;5.299999;3.5;;;;;;;-3.73;65.25293;96364.28;;;;
2020/02/07 01:14:38;;;;;;;5.299999;3.5;;;;;;;-3.73;65.25293;96364.28;;;;
2020/02/07 01:15:39;;;;;;;5.299999;3.5;;;;;;;-3.73;65.25293;96364.28;;;;
2020/02/07 01:16:39;;;;;;;5.299999;3.5;;;;;;;-3.73;65.25293;96364.28;;;;
2020/02/07 01:17:42;;;;;;;5.8;3.65;;;;;;;-3.76;65.31055;96353.89;;;;
2020/02/07 01:19:29;;;;;;;5.8;3.65;;;;;;;-3.76;65.31055;96353.89;;;;
2020/02/07 01:20:32;;;;;;;5.8;3.65;;;;;;;-3.76;65.31055;96353.89;;;;
2020/02/07 01:21:33;;;;;;;5.8;3.65;;;;;;;-3.76;65.31055;96353.89;;;;
2020/02/07 01:22:39;;;;;;;5.8;3.65;;;;;;;-3.76;65.31055;96353.89;;;;
2020/02/07 01:23:41;;;;;;;5.8;3.65;;;;;;;-3.76;65.31055;96353.89;;;;
2020/02/07 01:24:45;;;;;;;5.8;3.65;;;;;;;-3.76;65.31055;96353.89;;;;
2020/02/07 01:27:04;;;;;;;5.8;3.65;;;;;;;-3.76;65.31055;96353.89;;;;
2020/02/07 01:28:12;;;;;;;4.25;2.9;;;;;;;-3.82;65.45605;96351.81;;;;
2020/02/07 01:29:31;;;;;;;4.25;2.9;;;;;;;-3.82;65.45605;96351.81;;;;
2020/02/07 01:30:32;;;;;;;4.25;2.9;;;;;;;-3.82;65.45605;96351.81;;;;
2020/02/07 01:31:55;;;;;;;4.25;2.9;;;;;;;-3.82;65.45605;96351.81;;;;
2020/02/07 01:32:55;;;;;;;4.25;2.9;;;;;;;-3.82;65.45605;96351.81;;;;
2020/02/07 01:33:56;;;;;;;4.25;2.9;;;;;;;-3.82;65.45605;96351.81;;;;
2020/02/07 01:34:56;;;;;;;4.25;2.9;;;;;;;-3.82;65.45605;96351.81;;;;
2020/02/07 01:35:57;;;;;;;4.25;2.9;;;;;;;-3.82;65.45605;96351.81;;;;
2020/02/07 01:36:59;;;;;;;4.25;2.9;;;;;;;-3.82;65.45605;96351.81;;;;
2020/02/07 01:38:00;;;;;;;4.25;2.9;;;;;;;-3.82;65.45605;96351.81;;;;
2020/02/07 01:39:09;;;;;;;5.3;3.2;;;;;;;-3.82;65.39355;96337.31;;;;
2020/02/07 01:40:59;;;;;;;5.3;3.2;;;;;;;-3.82;65.39355;96337.31;;;;
2020/02/07 01:42:02;;;;;;;5.3;3.2;;;;;;;-3.82;65.39355;96337.31;;;;
2020/02/07 01:43:02;;;;;;;5.3;3.2;;;;;;;-3.82;65.39355;96337.31;;;;
2020/02/07 01:44:03;;;;;;;5.3;3.2;;;;;;;-3.82;65.39355;96337.31;;;;
2020/02/07 01:45:19;;;;;;;5.3;3.2;;;;;;;-3.82;65.39355;96337.31;;;;
2020/02/07 01:46:21;;;;;;;5.3;3.2;;;;;;;-3.82;65.39355;96337.31;;;;
2020/02/07 01:47:32;;;;;;;5.3;3.2;;;;;;;-3.82;65.39355;96337.31;;;;
2020/02/07 01:49:41;;;;;;;5.3;3.2;;;;;;;-3.82;65.39355;96337.31;;;;
2020/02/07 01:51:20;;;;;;;5.9;3.2;;;;;;;-3.96;65.4668;96342.77;;;;
2020/02/07 01:53:36;;;;;;;5.9;3.2;;;;;;;-3.96;65.4668;96342.77;;;;
2020/02/07 01:55:13;;;;;;;5.9;3.2;;;;;;;-3.96;65.4668;96342.77;;;;
2020/02/07 01:56:33;;;;;;;5.9;3.2;;;;;;;-3.96;65.4668;96342.77;;;;
2020/02/07 01:57:49;;;;;;;5.9;3.2;;;;;;;-3.96;65.4668;96342.77;;;;
2020/02/07 01:59:06;;;;;;;5.9;3.2;;;;;;;-3.96;65.4668;96342.77;;;;
2020/02/07 02:00:22;;;;;;;4.25;2.950001;;;;;;;-4.05;65.55566;96332.14;;;;
2020/02/07 02:01:55;;;;;;;4.25;2.950001;;;;;;;-4.05;65.55566;96332.14;;;;
2020/02/07 02:03:25;;;;;;;4.25;2.950001;;;;;;;-4.05;65.55566;96332.14;;;;
2020/02/07 02:04:44;;;;;;;4.25;2.950001;;;;;;;-4.05;65.55566;96332.14;;;;
2020/02/07 02:05:46;;;;;;;4.25;2.950001;;;;;;;-4.05;65.55566;96332.14;;;;
2020/02/07 02:06:54;;;;;;;4.25;2.950001;;;;;;;-4.05;65.55566;96332.14;;;;
2020/02/07 02:07:57;;;;;;;4.25;2.950001;;;;;;;-4.05;65.55566;96332.14;;;;
2020/02/07 02:09:09;;;;;;;4.25;2.950001;;;;;;;-4.05;65.55566;96332.14;;;;
2020/02/07 02:10:50;;;;;;;4.8;3.2;;;;;;;-4.2;65.70801;96338.61;;;;
2020/02/07 02:11:55;;;;;;;4.8;3.2;;;;;;;-4.2;65.70801;96338.61;;;;
2020/02/07 02:12:55;;;;;;;4.8;3.2;;;;;;;-4.2;65.70801;96338.61;;;;
2020/02/07 02:14:44;;;;;;;4.8;3.2;;;;;;;-4.2;65.70801;96338.61;;;;
2020/02/07 02:15:56;;;;;;;4.8;3.2;;;;;;;-4.2;65.70801;96338.61;;;;
2020/02/07 02:16:59;;;;;;;4.8;3.2;;;;;;;-4.2;65.70801;96338.61;;;;
2020/02/07 02:18:39;;;;;;;4.8;3.2;;;;;;;-4.2;65.70801;96338.61;;;;
2020/02/07 02:19:42;;;;;;;4.8;3.2;;;;;;;-4.2;65.70801;96338.61;;;;
2020/02/07 02:20:50;;;;;;;4.8;3.2;;;;;;;-4.2;65.70801;96338.61;;;;
2020/02/07 02:21:51;;;;;;;4.75;3.1;;;;;;;-4.26;65.80273;96332.92;;;;
2020/02/07 02:22:55;;;;;;;4.75;3.1;;;;;;;-4.26;65.80273;96332.92;;;;
2020/02/07 02:23:55;;;;;;;4.75;3.1;;;;;;;-4.26;65.80273;96332.92;;;;
2020/02/07 02:24:56;;;;;;;4.75;3.1;;;;;;;-4.26;65.80273;96332.92;;;;
2020/02/07 02:25:56;;;;;;;4.75;3.1;;;;;;;-4.26;65.80273;96332.92;;;;
2020/02/07 02:27:00;;;;;;;4.75;3.1;;;;;;;-4.26;65.80273;96332.92;;;;
2020/02/07 02:28:00;;;;;;;4.75;3.1;;;;;;;-4.26;65.80273;96332.92;;;;
2020/02/07 02:29:01;;;;;;;4.75;3.1;;;;;;;-4.26;65.80273;96332.92;;;;
2020/02/07 02:30:07;;;;;;;4.75;3.1;;;;;;;-4.26;65.80273;96332.92;;;;
2020/02/07 02:31:08;;;;;;;4.75;3.1;;;;;;;-4.26;65.80273;96332.92;;;;
2020/02/07 02:32:09;;;;;;;6.9;3.4;;;;;;;-4.43;65.81934;96326.36;;;;
2020/02/07 02:33:11;;;;;;;6.9;3.4;;;;;;;-4.43;65.81934;96326.36;;;;
2020/02/07 02:34:12;;;;;;;6.9;3.4;;;;;;;-4.43;65.81934;96326.36;;;;
2020/02/07 02:35:14;;;;;;;6.9;3.4;;;;;;;-4.43;65.81934;96326.36;;;;
2020/02/07 02:37:04;;;;;;;6.9;3.4;;;;;;;-4.43;65.81934;96326.36;;;;
2020/02/07 02:38:04;;;;;;;6.9;3.4;;;;;;;-4.43;65.81934;96326.36;;;;
2020/02/07 02:39:18;;;;;;;6.9;3.4;;;;;;;-4.43;65.81934;96326.36;;;;
2020/02/07 02:41:24;;;;;;;6.9;3.4;;;;;;;-4.43;65.81934;96326.36;;;;
2020/02/07 02:44:32;;;;;;;6.95;2.9;;;;;;;-4.47;66.10059;96307.83;;;;
2020/02/07 02:45:32;;;;;;;6.95;2.9;;;;;;;-4.47;66.10059;96307.83;;;;
2020/02/07 02:46:33;;;;;;;6.95;2.9;;;;;;;-4.47;66.10059;96307.83;;;;
2020/02/07 02:47:39;;;;;;;6.95;2.9;;;;;;;-4.47;66.10059;96307.83;;;;
2020/02/07 02:48:39;;;;;;;6.95;2.9;;;;;;;-4.47;66.10059;96307.83;;;;
2020/02/07 02:49:41;;;;;;;6.95;2.9;;;;;;;-4.47;66.10059;96307.83;;;;
2020/02/07 02:50:42;;;;;;;6.95;2.9;;;;;;;-4.47;66.10059;96307.83;;;;
2020/02/07 02:51:43;;;;;;;6.95;2.9;;;;;;;-4.47;66.10059;96307.83;;;;
2020/02/07 02:52:50;;;;;;;6.95;2.9;;;;;;;-4.47;66.10059;96307.83;;;;
2020/02/07 02:53:50;;;;;;;6.199999;2.95;;;;;;;-4.57;66.27051;96297.66;;;;
2020/02/07 02:54:51;;;;;;;6.199999;2.95;;;;;;;-4.57;66.27051;96297.66;;;;
2020/02/07 02:55:52;;;;;;;4.95;3.45;;;;;;;-4.53;66.72266;96299.92;;;;
2020/02/07 02:56:52;;;;;;;4.95;3.45;;;;;;;-4.53;66.72266;96299.92;;;;
2020/02/07 02:57:53;;;;;;;4.95;3.45;;;;;;;-4.53;66.72266;96299.92;;;;
2020/02/07 02:58:53;;;;;;;4.95;3.45;;;;;;;-4.53;66.72266;96299.92;;;;
2020/02/07 02:59:54;;;;;;;4.95;3.45;;;;;;;-4.53;66.72266;96299.92;;;;
2020/02/07 03:00:54;;;;;;;4.95;3.45;;;;;;;-4.53;66.72266;96299.92;;;;
2020/02/07 03:01:55;;;;;;;4.95;3.45;;;;;;;-4.53;66.72266;96299.92;;;;
2020/02/07 03:02:57;;;;;;;4.95;3.45;;;;;;;-4.53;66.72266;96299.92;;;;
2020/02/07 03:03:58;;;;;;;4.95;3.45;;;;;;;-4.53;66.72266;96299.92;;;;
2020/02/07 03:04:58;;;;;;;4.95;3.45;;;;;;;-4.53;66.72266;96299.92;;;;
2020/02/07 03:05:59;;;;;;;4.95;3.45;;;;;;;-4.53;66.72266;96299.92;;;;
2020/02/07 03:06:59;;;;;;;4.800001;3.05;;;;;;;-4.58;66.65332;96289.38;;;;
2020/02/07 03:08:01;;;;;;;4.800001;3.05;;;;;;;-4.58;66.65332;96289.38;;;;
2020/02/07 03:09:02;;;;;;;4.800001;3.05;;;;;;;-4.58;66.65332;96289.38;;;;
2020/02/07 03:10:05;;;;;;;4.800001;3.05;;;;;;;-4.58;66.65332;96289.38;;;;
2020/02/07 03:11:44;;;;;;;4.800001;3.05;;;;;;;-4.58;66.65332;96289.38;;;;
2020/02/07 03:12:45;;;;;;;4.800001;3.05;;;;;;;-4.58;66.65332;96289.38;;;;
2020/02/07 03:13:46;;;;;;;4.800001;3.05;;;;;;;-4.58;66.65332;96289.38;;;;
2020/02/07 03:14:48;;;;;;;4.800001;3.05;;;;;;;-4.58;66.65332;96289.38;;;;
2020/02/07 03:15:51;;;;;;;4.800001;3.05;;;;;;;-4.58;66.65332;96289.38;;;;
2020/02/07 03:16:53;;;;;;;4.4;3.05;;;;;;;-4.61;66.81445;96293.11;;;;
2020/02/07 03:17:56;;;;;;;4.4;3.05;;;;;;;-4.61;66.81445;96293.11;;;;
2020/02/07 03:18:57;;;;;;;4.4;3.05;;;;;;;-4.61;66.81445;96293.11;;;;
2020/02/07 03:19:58;;;;;;;4.4;3.05;;;;;;;-4.61;66.81445;96293.11;;;;
2020/02/07 03:21:17;;;;;;;4.4;3.05;;;;;;;-4.61;66.81445;96293.11;;;;
2020/02/07 03:22:23;;;;;;;4.4;3.05;;;;;;;-4.61;66.81445;96293.11;;;;
2020/02/07 03:23:24;;;;;;;4.4;3.05;;;;;;;-4.61;66.81445;96293.11;;;;
2020/02/07 03:24:24;;;;;;;4.4;3.05;;;;;;;-4.61;66.81445;96293.11;;;;
2020/02/07 03:25:25;;;;;;;4.4;3.05;;;;;;;-4.61;66.81445;96293.11;;;;
2020/02/07 03:26:26;;;;;;;4.4;3.05;;;;;;;-4.61;66.81445;96293.11;;;;
2020/02/07 03:27:28;;;;;;;6.349999;3.299999;;;;;;;-4.72;66.71484;96314.17;;;;
2020/02/07 03:28:28;;;;;;;6.349999;3.299999;;;;;;;-4.72;66.71484;96314.17;;;;
2020/02/07 03:29:29;;;;;;;6.349999;3.299999;;;;;;;-4.72;66.71484;96314.17;;;;
2020/02/07 03:30:29;;;;;;;6.349999;3.299999;;;;;;;-4.72;66.71484;96314.17;;;;
2020/02/07 03:31:30;;;;;;;6.349999;3.299999;;;;;;;-4.72;66.71484;96314.17;;;;
2020/02/07 03:32:30;;;;;;;6.349999;3.299999;;;;;;;-4.72;66.71484;96314.17;;;;
2020/02/07 03:33:31;;;;;;;6.349999;3.299999;;;;;;;-4.72;66.71484;96314.17;;;;
2020/02/07 03:34:31;;;;;;;6.349999;3.299999;;;;;;;-4.72;66.71484;96314.17;;;;
2020/02/07 03:35:32;;;;;;;6.349999;3.299999;;;;;;;-4.72;66.71484;96314.17;;;;
2020/02/07 03:36:32;;;;;;;6.349999;3.299999;;;;;;;-4.72;66.71484;96314.17;;;;
2020/02/07 03:37:33;;;;;;;6.349999;3.299999;;;;;;;-4.72;66.71484;96314.17;;;;
2020/02/07 03:38:33;;;;;;;4.05;2.85;;;;;;;-4.75;66.86426;96308.23;;;;
2020/02/07 03:39:34;;;;;;;4.05;2.85;;;;;;;-4.75;66.86426;96308.23;;;;
2020/02/07 03:40:34;;;;;;;4.05;2.85;;;;;;;-4.75;66.86426;96308.23;;;;
2020/02/07 03:41:35;;;;;;;4.05;2.85;;;;;;;-4.75;66.86426;96308.23;;;;
2020/02/07 03:42:35;;;;;;;4.05;2.85;;;;;;;-4.75;66.86426;96308.23;;;;
2020/02/07 03:43:36;;;;;;;4.05;2.85;;;;;;;-4.75;66.86426;96308.23;;;;
2020/02/07 03:44:37;;;;;;;4.05;2.85;;;;;;;-4.75;66.86426;96308.23;;;;
2020/02/07 03:45:37;;;;;;;4.05;2.85;;;;;;;-4.75;66.86426;96308.23;;;;
2020/02/07 03:46:39;;;;;;;4.05;2.85;;;;;;;-4.75;66.86426;96308.23;;;;
2020/02/07 03:47:44;;;;;;;4.05;2.85;;;;;;;-4.75;66.86426;96308.23;;;;
2020/02/07 03:48:47;;;;;;;8.599999;3.55;;;;;;;-4.87;66.82422;96308.33;;;;
2020/02/07 03:49:48;;;;;;;8.599999;3.55;;;;;;;-4.87;66.82422;96308.33;;;;
2020/02/07 03:50:49;;;;;;;8.599999;3.55;;;;;;;-4.87;66.82422;96308.33;;;;
2020/02/07 03:51:50;;;;;;;8.599999;3.55;;;;;;;-4.87;66.82422;96308.33;;;;
2020/02/07 03:52:57;;;;;;;8.599999;3.55;;;;;;;-4.87;66.82422;96308.33;;;;
2020/02/07 03:53:57;;;;;;;8.599999;3.55;;;;;;;-4.87;66.82422;96308.33;;;;
2020/02/07 03:55:00;;;;;;;8.599999;3.55;;;;;;;-4.87;66.82422;96308.33;;;;
2020/02/07 03:56:01;;;;;;;8.599999;3.55;;;;;;;-4.87;66.82422;96308.33;;;;
2020/02/07 03:57:03;;;;;;;8.599999;3.55;;;;;;;-4.87;66.82422;96308.33;;;;
2020/02/07 03:58:04;;;;;;;8.599999;3.55;;;;;;;-4.87;66.82422;96308.33;;;;
2020/02/07 03:59:05;;;;;;;8.599999;3.55;;;;;;;-4.87;66.82422;96308.33;;;;
2020/02/07 04:00:06;;;;;;;6.35;3.4;;;;;;;-4.91;67.03516;96299.44;;;;
2020/02/07 04:01:07;;;;;;;6.35;3.4;;;;;;;-4.91;67.03516;96299.44;;;;
2020/02/07 04:02:09;;;;;;;6.35;3.4;;;;;;;-4.91;67.03516;96299.44;;;;
2020/02/07 04:03:10;;;;;;;6.35;3.4;;;;;;;-4.91;67.03516;96299.44;;;;
2020/02/07 04:04:14;;;;;;;6.35;3.4;;;;;;;-4.91;67.03516;96299.44;;;;
2020/02/07 04:05:20;;;;;;;6.35;3.4;;;;;;;-4.91;67.03516;96299.44;;;;
2020/02/07 04:06:25;;;;;;;6.35;3.4;;;;;;;-4.91;67.03516;96299.44;;;;
2020/02/07 04:07:39;;;;;;;6.35;3.4;;;;;;;-4.91;67.03516;96299.44;;;;
2020/02/07 04:08:58;;;;;;;6.35;3.4;;;;;;;-4.91;67.03516;96299.44;;;;
2020/02/07 04:10:08;;;;;;;5.45;3.35;;;;;;;-5;67.08203;96295.76;;;;
2020/02/07 04:11:18;;;;;;;5.45;3.35;;;;;;;-5;67.08203;96295.76;;;;
2020/02/07 04:12:38;;;;;;;5.45;3.35;;;;;;;-5;67.08203;96295.76;;;;
2020/02/07 04:13:47;;;;;;;5.45;3.35;;;;;;;-5;67.08203;96295.76;;;;
2020/02/07 04:14:48;;;;;;;5.45;3.35;;;;;;;-5;67.08203;96295.76;;;;
2020/02/07 04:15:49;;;;;;;5.45;3.35;;;;;;;-5;67.08203;96295.76;;;;
2020/02/07 04:16:49;;;;;;;5.45;3.35;;;;;;;-5;67.08203;96295.76;;;;
2020/02/07 04:17:50;;;;;;;5.45;3.35;;;;;;;-5;67.08203;96295.76;;;;
2020/02/07 04:18:55;;;;;;;5.45;3.35;;;;;;;-5;67.08203;96295.76;;;;
2020/02/07 04:19:55;;;;;;;5.45;3.35;;;;;;;-5;67.08203;96295.76;;;;
2020/02/07 04:20:56;;;;;;;5.65;3.45;;;;;;;-5.03;67.2334;96287.61;;;;
2020/02/07 04:22:12;;;;;;;5.65;3.45;;;;;;;-5.03;67.2334;96287.61;;;;
2020/02/07 04:23:13;;;;;;;5.65;3.45;;;;;;;-5.03;67.2334;96287.61;;;;
2020/02/07 04:24:13;;;;;;;5.65;3.45;;;;;;;-5.03;67.2334;96287.61;;;;
2020/02/07 04:25:14;;;;;;;5.65;3.45;;;;;;;-5.03;67.2334;96287.61;;;;
2020/02/07 04:26:14;;;;;;;5.65;3.45;;;;;;;-5.03;67.2334;96287.61;;;;
2020/02/07 04:27:15;;;;;;;5.65;3.45;;;;;;;-5.03;67.2334;96287.61;;;;
2020/02/07 04:28:15;;;;;;;5.65;3.45;;;;;;;-5.03;67.2334;96287.61;;;;
2020/02/07 04:29:15;;;;;;;5.65;3.45;;;;;;;-5.03;67.2334;96287.61;;;;
2020/02/07 04:30:16;;;;;;;5.65;3.45;;;;;;;-5.03;67.2334;96287.61;;;;
2020/02/07 04:31:16;;;;;;;4.9;3.25;;;;;;;-5.11;67.52246;96281.19;;;;
2020/02/07 04:32:17;;;;;;;4.9;3.25;;;;;;;-5.11;67.52246;96281.19;;;;
2020/02/07 04:33:17;;;;;;;4.9;3.25;;;;;;;-5.11;67.52246;96281.19;;;;
2020/02/07 04:34:18;;;;;;;4.9;3.25;;;;;;;-5.11;67.52246;96281.19;;;;
2020/02/07 04:35:19;;;;;;;4.9;3.25;;;;;;;-5.11;67.52246;96281.19;;;;
2020/02/07 04:36:19;;;;;;;4.9;3.25;;;;;;;-5.11;67.52246;96281.19;;;;
2020/02/07 04:37:20;;;;;;;4.9;3.25;;;;;;;-5.11;67.52246;96281.19;;;;
2020/02/07 04:38:20;;;;;;;4.9;3.25;;;;;;;-5.11;67.52246;96281.19;;;;
2020/02/07 04:39:21;;;;;;;4.9;3.25;;;;;;;-5.11;67.52246;96281.19;;;;
2020/02/07 04:40:25;;;;;;;4.9;3.25;;;;;;;-5.11;67.52246;96281.19;;;;
2020/02/07 04:41:26;;;;;;;4.9;3.25;;;;;;;-5.11;67.52246;96281.19;;;;
2020/02/07 04:42:26;;;;;;;5.1;3.1;;;;;;;-5.11;67.63477;96279.06;;;;
2020/02/07 04:43:28;;;;;;;5.1;3.1;;;;;;;-5.11;67.63477;96279.06;;;;
2020/02/07 04:44:29;;;;;;;5.1;3.1;;;;;;;-5.11;67.63477;96279.06;;;;
2020/02/07 04:45:31;;;;;;;5.1;3.1;;;;;;;-5.11;67.63477;96279.06;;;;
2020/02/07 04:46:32;;;;;;;5.1;3.1;;;;;;;-5.11;67.63477;96279.06;;;;
2020/02/07 04:47:32;;;;;;;5.1;3.1;;;;;;;-5.11;67.63477;96279.06;;;;
2020/02/07 04:48:34;;;;;;;5.1;3.1;;;;;;;-5.11;67.63477;96279.06;;;;
2020/02/07 04:49:34;;;;;;;5.1;3.1;;;;;;;-5.11;67.63477;96279.06;;;;
2020/02/07 04:50:35;;;;;;;5.1;3.1;;;;;;;-5.11;67.63477;96279.06;;;;
2020/02/07 04:51:36;;;;;;;5.1;3.1;;;;;;;-5.11;67.63477;96279.06;;;;
2020/02/07 04:52:44;;;;;;;4.6;2.8;;;;;;;-5.17;67.71777;96275.09;;;;
2020/02/07 04:53:46;;;;;;;4.6;2.8;;;;;;;-5.17;67.71777;96275.09;;;;
2020/02/07 04:54:49;;;;;;;4.6;2.8;;;;;;;-5.17;67.71777;96275.09;;;;
2020/02/07 04:55:49;;;;;;;4.6;2.8;;;;;;;-5.17;67.71777;96275.09;;;;
2020/02/07 04:56:49;;;;;;;4.6;2.8;;;;;;;-5.17;67.71777;96275.09;;;;
2020/02/07 04:57:55;;;;;;;4.6;2.8;;;;;;;-5.17;67.71777;96275.09;;;;
2020/02/07 04:59:04;;;;;;;4.6;2.8;;;;;;;-5.17;67.71777;96275.09;;;;
2020/02/07 05:00:04;;;;;;;4.6;2.8;;;;;;;-5.17;67.71777;96275.09;;;;
2020/02/07 05:01:22;;;;;;;4.6;2.8;;;;;;;-5.17;67.71777;96275.09;;;;
2020/02/07 05:02:32;;;;;;;4.6;2.8;;;;;;;-5.17;67.71777;96275.09;;;;
2020/02/07 05:09:03;;;;;;;5.349999;3.2;;;;;;;-5.16;67.93555;96268.94;;;;
2020/02/07 05:10:14;;;;;;;5.349999;3.2;;;;;;;-5.16;67.93555;96268.94;;;;
2020/02/07 05:11:22;;;;;;;5.349999;3.2;;;;;;;-5.16;67.93555;96268.94;;;;
2020/02/07 05:12:31;;;;;;;5.349999;3.2;;;;;;;-5.16;67.93555;96268.94;;;;
2020/02/07 05:14:44;;;;;;;5.349999;3.2;;;;;;;-5.16;67.93555;96268.94;;;;
2020/02/07 05:20:58;;;;;;;5.650001;3.299999;;;;;;;-5.22;67.90723;96270.24;;;;
2020/02/07 05:21:59;;;;;;;5.650001;3.299999;;;;;;;-5.22;67.90723;96270.24;;;;
2020/02/07 05:22:59;;;;;;;5.650001;3.299999;;;;;;;-5.22;67.90723;96270.24;;;;
2020/02/07 05:24:01;;;;;;;5.650001;3.299999;;;;;;;-5.22;67.90723;96270.24;;;;
2020/02/07 05:25:01;;;;;;;4.3;3.35;;;;;;;-5.23;68.12109;96272.5;;;;
2020/02/07 05:26:02;;;;;;;4.3;3.35;;;;;;;-5.23;68.12109;96272.5;;;;
2020/02/07 05:27:03;;;;;;;4.3;3.35;;;;;;;-5.23;68.12109;96272.5;;;;
2020/02/07 05:28:03;;;;;;;4.3;3.35;;;;;;;-5.23;68.12109;96272.5;;;;
2020/02/07 05:29:04;;;;;;;4.3;3.35;;;;;;;-5.23;68.12109;96272.5;;;;
2020/02/07 05:30:04;;;;;;;4.3;3.35;;;;;;;-5.23;68.12109;96272.5;;;;
2020/02/07 05:31:05;;;;;;;4.3;3.35;;;;;;;-5.23;68.12109;96272.5;;;;
2020/02/07 05:32:06;;;;;;;4.3;3.35;;;;;;;-5.23;68.12109;96272.5;;;;
2020/02/07 05:33:07;;;;;;;4.3;3.35;;;;;;;-5.23;68.12109;96272.5;;;;
2020/02/07 05:34:07;;;;;;;4.3;3.35;;;;;;;-5.23;68.12109;96272.5;;;;
2020/02/07 05:35:08;;;;;;;4.8;3.4;;;;;;;-5.31;67.99512;96274.46;;;;
2020/02/07 05:36:08;;;;;;;4.8;3.4;;;;;;;-5.31;67.99512;96274.46;;;;
2020/02/07 05:37:09;;;;;;;4.8;3.4;;;;;;;-5.31;67.99512;96274.46;;;;
2020/02/07 05:38:09;;;;;;;4.8;3.4;;;;;;;-5.31;67.99512;96274.46;;;;
2020/02/07 05:39:10;;;;;;;4.8;3.4;;;;;;;-5.31;67.99512;96274.46;;;;
2020/02/07 05:40:15;;;;;;;4.8;3.4;;;;;;;-5.31;67.99512;96274.46;;;;
2020/02/07 05:41:18;;;;;;;4.8;3.4;;;;;;;-5.31;67.99512;96274.46;;;;
2020/02/07 05:42:18;;;;;;;4.8;3.4;;;;;;;-5.31;67.99512;96274.46;;;;
2020/02/07 05:43:19;;;;;;;4.8;3.4;;;;;;;-5.31;67.99512;96274.46;;;;
2020/02/07 05:44:19;;;;;;;4.8;3.4;;;;;;;-5.31;67.99512;96274.46;;;;
2020/02/07 05:45:20;;;;;;;4.8;3.4;;;;;;;-5.31;67.99512;96274.46;;;;
2020/02/07 05:46:20;;;;;;;4.349999;3.2;;;;;;;-5.33;68.29102;96267.58;;;;
2020/02/07 05:47:21;;;;;;;4.349999;3.2;;;;;;;-5.33;68.29102;96267.58;;;;
2020/02/07 05:48:21;;;;;;;4.349999;3.2;;;;;;;-5.33;68.29102;96267.58;;;;
2020/02/07 05:49:22;;;;;;;4.349999;3.2;;;;;;;-5.33;68.29102;96267.58;;;;
2020/02/07 05:50:22;;;;;;;4.349999;3.2;;;;;;;-5.33;68.29102;96267.58;;;;
2020/02/07 05:51:23;;;;;;;4.349999;3.2;;;;;;;-5.33;68.29102;96267.58;;;;
2020/02/07 05:52:23;;;;;;;4.349999;3.2;;;;;;;-5.33;68.29102;96267.58;;;;
2020/02/07 05:53:24;;;;;;;4.349999;3.2;;;;;;;-5.33;68.29102;96267.58;;;;
2020/02/07 05:54:25;;;;;;;4.349999;3.2;;;;;;;-5.33;68.29102;96267.58;;;;
2020/02/07 05:55:25;;;;;;;4.349999;3.2;;;;;;;-5.33;68.29102;96267.58;;;;
2020/02/07 05:56:26;;;;;;;7.05;4.050001;;;;;;;-5.41;68.37012;96262.05;;;;
2020/02/07 05:57:26;;;;;;;7.05;4.050001;;;;;;;-5.41;68.37012;96262.05;;;;
2020/02/07 05:58:27;;;;;;;7.05;4.050001;;;;;;;-5.41;68.37012;96262.05;;;;
2020/02/07 05:59:27;;;;;;;7.05;4.050001;;;;;;;-5.41;68.37012;96262.05;;;;
2020/02/07 06:00:28;;;;;;;7.05;4.050001;;;;;;;-5.41;68.37012;96262.05;;;;
2020/02/07 06:01:29;;;;;;;7.05;4.050001;;;;;;;-5.41;68.37012;96262.05;;;;
2020/02/07 06:02:29;;;;;;;7.05;4.050001;;;;;;;-5.41;68.37012;96262.05;;;;
2020/02/07 06:03:30;;;;;;;7.05;4.050001;;;;;;;-5.41;68.37012;96262.05;;;;
2020/02/07 06:04:31;;;;;;;7.05;4.050001;;;;;;;-5.41;68.37012;96262.05;;;;
2020/02/07 06:05:32;;;;;;;7.05;4.050001;;;;;;;-5.41;68.37012;96262.05;;;;
2020/02/07 06:06:33;;;;;;;7.05;4.050001;;;;;;;-5.41;68.37012;96262.05;;;;
2020/02/07 06:07:34;;;;;;;6.500001;3.7;;;;;;;-5.38;68.375;96258.78;;;;
2020/02/07 06:08:34;;;;;;;6.500001;3.7;;;;;;;-5.38;68.375;96258.78;;;;
2020/02/07 06:09:35;;;;;;;6.500001;3.7;;;;;;;-5.38;68.375;96258.78;;;;
2020/02/07 06:10:36;;;;;;;6.500001;3.7;;;;;;;-5.38;68.375;96258.78;;;;
2020/02/07 06:11:36;;;;;;;6.500001;3.7;;;;;;;-5.38;68.375;96258.78;;;;
2020/02/07 06:12:37;;;;;;;6.500001;3.7;;;;;;;-5.38;68.375;96258.78;;;;
2020/02/07 06:13:37;;;;;;;6.500001;3.7;;;;;;;-5.38;68.375;96258.78;;;;
2020/02/07 06:14:37;;;;;;;6.500001;3.7;;;;;;;-5.38;68.375;96258.78;;;;
2020/02/07 06:15:38;;;;;;;6.500001;3.7;;;;;;;-5.38;68.375;96258.78;;;;
2020/02/07 06:16:39;;;;;;;6.500001;3.7;;;;;;;-5.38;68.375;96258.78;;;;
2020/02/07 06:17:40;;;;;;;4.15;2.8;;;;;;;-5.43;68.34668;96269.64;;;;
2020/02/07 06:18:40;;;;;;;4.15;2.8;;;;;;;-5.43;68.34668;96269.64;;;;
2020/02/07 06:19:41;;;;;;;4.15;2.8;;;;;;;-5.43;68.34668;96269.64;;;;
2020/02/07 06:20:42;;;;;;;4.15;2.8;;;;;;;-5.43;68.34668;96269.64;;;;
2020/02/07 06:21:42;;;;;;;4.15;2.8;;;;;;;-5.43;68.34668;96269.64;;;;
2020/02/07 06:22:43;;;;;;;4.15;2.8;;;;;;;-5.43;68.34668;96269.64;;;;
2020/02/07 06:23:43;;;;;;;4.15;2.8;;;;;;;-5.43;68.34668;96269.64;;;;
2020/02/07 06:24:44;;;;;;;4.15;2.8;;;;;;;-5.43;68.34668;96269.64;;;;